createdAt,value
2016-08-25T00:00:56.663Z,1005.68
2016-08-25T00:02:08.227Z,1005.68
2016-08-25T00:03:19.789Z,1005.68
2016-08-25T00:04:31.354Z,1005.61
2016-08-25T00:05:43.648Z,1005.64
2016-08-25T00:06:55.217Z,1005.61
2016-08-25T00:08:06.782Z,1005.61
2016-08-25T00:09:17.659Z,1005.63
2016-08-25T00:10:28.533Z,1005.61
2016-08-25T00:11:40.816Z,1005.6
2016-08-25T00:12:51.683Z,1005.59
2016-08-25T00:14:01.846Z,1005.59
2016-08-25T00:15:13.416Z,1005.6
2016-08-25T00:16:24.285Z,1005.57
2016-08-25T00:17:36.542Z,1005.55
2016-08-25T00:18:48.098Z,1005.55
2016-08-25T00:20:00.369Z,1005.53
2016-08-25T00:21:11.956Z,1005.55
2016-08-25T00:22:22.835Z,1005.56
2016-08-25T00:23:35.119Z,1005.58
2016-08-25T00:24:46.700Z,1005.56
2016-08-25T00:25:58.299Z,1005.54
2016-08-25T00:27:09.864Z,1005.56
2016-08-25T00:28:21.435Z,1005.55
2016-08-25T00:29:33.700Z,1005.58
2016-08-25T00:30:44.573Z,1005.56
2016-08-25T00:31:56.849Z,1005.55
2016-08-25T00:33:07.730Z,1005.58
2016-08-25T00:34:18.618Z,1005.56
2016-08-25T00:35:30.190Z,1005.6
2016-08-25T00:36:42.491Z,1005.56
2016-08-25T00:37:54.065Z,1005.57
2016-08-25T00:39:05.631Z,1005.55
2016-08-25T00:40:17.201Z,1005.56
2016-08-25T00:41:29.487Z,1005.54
2016-08-25T00:42:41.814Z,1005.56
2016-08-25T00:43:53.411Z,1005.55
2016-08-25T00:45:05.685Z,1005.55
2016-08-25T00:46:17.957Z,1005.59
2016-08-25T00:47:28.839Z,1005.56
2016-08-25T00:48:40.431Z,1005.59
2016-08-25T00:49:52.740Z,1005.56
2016-08-25T00:51:04.309Z,1005.5
2016-08-25T00:52:15.883Z,1005.51
2016-08-25T00:53:28.171Z,1005.47
2016-08-25T00:54:39.762Z,1005.47
2016-08-25T00:55:51.338Z,1005.5
2016-08-25T00:57:02.911Z,1005.48
2016-08-25T00:58:14.002Z,1005.48
2016-08-25T00:59:26.279Z,1005.45
2016-08-25T01:00:38.541Z,1005.45
2016-08-25T01:01:50.119Z,1005.44
2016-08-25T01:03:01.718Z,1005.42
2016-08-25T01:04:13.286Z,1005.46
2016-08-25T01:05:24.867Z,1005.45
2016-08-25T01:06:37.146Z,1005.47
2016-08-25T01:07:49.419Z,1005.48
2016-08-25T01:09:00.989Z,1005.5
2016-08-25T01:10:13.284Z,1005.49
2016-08-25T01:11:25.562Z,1005.45
2016-08-25T01:12:37.133Z,1005.45
2016-08-25T01:13:49.418Z,1005.45
2016-08-25T01:15:00.280Z,1005.43
2016-08-25T01:16:11.833Z,1005.39
2016-08-25T01:17:24.126Z,1005.38
2016-08-25T01:18:35.691Z,1005.37
2016-08-25T01:19:47.961Z,1005.39
2016-08-25T01:20:59.544Z,1005.35
2016-08-25T01:22:11.127Z,1005.32
2016-08-25T01:23:23.408Z,1005.35
2016-08-25T01:24:34.969Z,1005.33
2016-08-25T01:25:47.260Z,1005.29
2016-08-25T01:26:58.144Z,1005.32
2016-08-25T01:28:10.425Z,1005.32
2016-08-25T01:29:21.289Z,1005.33
2016-08-25T01:30:32.860Z,1005.29
2016-08-25T01:31:44.425Z,1005.33
2016-08-25T01:32:54.592Z,1005.27
2016-08-25T01:34:06.871Z,1005.31
2016-08-25T01:35:19.142Z,1005.26
2016-08-25T01:36:30.716Z,1005.24
2016-08-25T01:37:42.293Z,1005.22
2016-08-25T01:38:53.862Z,1005.21
2016-08-25T01:40:06.150Z,1005.23
2016-08-25T01:41:18.658Z,1005.22
2016-08-25T01:42:30.927Z,1005.22
2016-08-25T01:43:42.488Z,1005.24
2016-08-25T01:44:53.362Z,1005.21
2016-08-25T01:46:05.641Z,1005.23
2016-08-25T01:47:17.229Z,1005.24
2016-08-25T01:48:28.113Z,1005.2
2016-08-25T01:49:40.393Z,1005.18
2016-08-25T01:50:52.689Z,1005.17
2016-08-25T01:52:04.263Z,1005.2
2016-08-25T01:53:16.528Z,1005.17
2016-08-25T01:54:28.086Z,1005.19
2016-08-25T01:55:40.366Z,1005.18
2016-08-25T01:56:52.623Z,1005.21
2016-08-25T01:58:04.913Z,1005.19
2016-08-25T01:59:16.479Z,1005.18
2016-08-25T02:00:28.050Z,1005.14
2016-08-25T02:01:39.624Z,1005.18
2016-08-25T02:02:51.899Z,1005.18
2016-08-25T02:04:04.163Z,1005.16
2016-08-25T02:05:15.034Z,1005.19
2016-08-25T02:06:25.905Z,1005.12
2016-08-25T02:07:38.207Z,1005.12
2016-08-25T02:08:50.491Z,1005.14
2016-08-25T02:10:02.053Z,1005.1
2016-08-25T02:11:14.329Z,1005.1
2016-08-25T02:12:25.222Z,1005.09
2016-08-25T02:13:37.671Z,1005.08
2016-08-25T02:14:52.000Z,1005
2016-08-25T02:16:05.225Z,1005.06
2016-08-25T02:17:16.805Z,1005.02
2016-08-25T02:18:29.101Z,1005.08
2016-08-25T02:19:41.377Z,1005.02
2016-08-25T02:20:53.645Z,1005.08
2016-08-25T02:22:05.225Z,1005.04
2016-08-25T02:23:17.493Z,1005.07
2016-08-25T02:24:29.061Z,1005.02
2016-08-25T02:25:39.916Z,1005.09
2016-08-25T02:26:52.181Z,1005.03
2016-08-25T02:28:04.458Z,1005.04
2016-08-25T02:29:16.028Z,1005.07
2016-08-25T02:30:28.281Z,1005.08
2016-08-25T02:31:39.842Z,1005.06
2016-08-25T02:32:52.112Z,1005.03
2016-08-25T02:34:04.392Z,1005.03
2016-08-25T02:35:15.311Z,1005.04
2016-08-25T02:36:26.881Z,1005.02
2016-08-25T02:37:39.156Z,1005.01
2016-08-25T02:38:51.430Z,1005.07
2016-08-25T02:40:03.695Z,1005.06
2016-08-25T02:41:14.548Z,1005.07
2016-08-25T02:42:26.826Z,1005.07
2016-08-25T02:43:39.088Z,1005.07
2016-08-25T02:44:51.374Z,1005.06
2016-08-25T02:46:02.940Z,1005.08
2016-08-25T02:47:14.520Z,1005.09
2016-08-25T02:48:26.782Z,1005.06
2016-08-25T02:49:37.644Z,1005.09
2016-08-25T02:50:49.226Z,1005.1
2016-08-25T02:52:00.093Z,1005.09
2016-08-25T02:53:11.675Z,1005.11
2016-08-25T02:54:23.932Z,1005.12
2016-08-25T02:55:34.786Z,1005.11
2016-08-25T02:56:46.362Z,1005.11
2016-08-25T02:57:58.663Z,1005.13
2016-08-25T03:30:52.695Z,1005.14
2016-08-25T03:32:04.942Z,1005.12
2016-08-25T03:33:15.811Z,1005.17
2016-08-25T03:34:28.067Z,1005.18
2016-08-25T03:35:40.356Z,1005.19
2016-08-25T03:36:51.948Z,1005.17
2016-08-25T03:38:03.533Z,1005.17
2016-08-25T03:39:15.097Z,1005.19
2016-08-25T03:40:25.966Z,1005.2
2016-08-25T03:41:36.816Z,1005.2
2016-08-25T03:42:47.687Z,1005.2
2016-08-25T03:43:59.245Z,1005.21
2016-08-25T03:45:11.531Z,1005.23
2016-08-25T03:46:23.093Z,1005.23
2016-08-25T03:47:34.665Z,1005.22
2016-08-25T03:48:46.957Z,1005.21
2016-08-25T03:49:58.530Z,1005.23
2016-08-25T03:51:10.115Z,1005.21
2016-08-25T03:52:22.387Z,1005.19
2016-08-25T03:53:34.662Z,1005.17
2016-08-25T03:54:46.243Z,1005.26
2016-08-25T03:55:57.093Z,1005.23
2016-08-25T03:57:07.258Z,1005.29
2016-08-25T03:58:18.810Z,1005.25
2016-08-25T03:59:29.674Z,1005.23
2016-08-25T04:00:41.973Z,1005.26
2016-08-25T04:01:53.559Z,1005.27
2016-08-25T04:03:05.826Z,1005.26
2016-08-25T04:04:17.419Z,1005.27
2016-08-25T04:05:28.292Z,1005.27
2016-08-25T04:06:39.162Z,1005.29
2016-08-25T04:07:50.032Z,1005.29
2016-08-25T04:09:02.310Z,1005.29
2016-08-25T04:10:13.875Z,1005.31
2016-08-25T04:11:24.755Z,1005.3
2016-08-25T04:12:35.629Z,1005.25
2016-08-25T04:13:47.920Z,1005.29
2016-08-25T04:15:00.203Z,1005.31
2016-08-25T04:16:12.484Z,1005.26
2016-08-25T04:17:24.062Z,1005.3
2016-08-25T04:18:35.635Z,1005.28
2016-08-25T04:19:47.217Z,1005.33
2016-08-25T04:20:59.502Z,1005.37
2016-08-25T04:22:11.773Z,1005.42
2016-08-25T04:23:24.059Z,1005.45
2016-08-25T04:24:34.939Z,1005.49
2016-08-25T04:25:47.224Z,1005.49
2016-08-25T04:26:59.502Z,1005.46
2016-08-25T04:28:11.059Z,1005.44
2016-08-25T04:29:22.627Z,1005.41
2016-08-25T04:30:34.203Z,1005.43
2016-08-25T04:31:45.780Z,1005.44
2016-08-25T04:32:58.064Z,1005.44
2016-08-25T04:34:09.666Z,1005.48
2016-08-25T04:35:21.919Z,1005.62
2016-08-25T04:36:34.186Z,1005.74
2016-08-25T04:37:45.759Z,1005.74
2016-08-25T04:38:57.342Z,1005.74
2016-08-25T04:40:09.606Z,1005.72
2016-08-25T04:41:21.168Z,1005.73
2016-08-25T04:42:33.430Z,1005.7
2016-08-25T04:43:43.603Z,1005.69
2016-08-25T04:44:55.182Z,1005.69
2016-08-25T04:46:06.059Z,1005.69
2016-08-25T04:47:18.326Z,1005.66
2016-08-25T04:48:30.591Z,1005.73
2016-08-25T04:49:42.190Z,1005.76
2016-08-25T04:50:53.988Z,1005.75
2016-08-25T04:52:05.579Z,1005.81
2016-08-25T04:53:17.135Z,1005.79
2016-08-25T04:54:29.408Z,1005.79
2016-08-25T04:55:41.678Z,1005.83
2016-08-25T04:56:53.962Z,1005.81
2016-08-25T04:58:06.261Z,1005.82
2016-08-25T04:59:17.131Z,1005.86
2016-08-25T05:00:28.708Z,1005.84
2016-08-25T05:01:40.289Z,1005.83
2016-08-25T05:02:52.565Z,1005.85
2016-08-25T05:04:04.847Z,1005.87
2016-08-25T05:05:15.713Z,1005.82
2016-08-25T05:06:27.267Z,1005.81
2016-08-25T05:07:38.828Z,1005.83
2016-08-25T05:08:51.109Z,1005.88
2016-08-25T05:10:03.387Z,1005.88
2016-08-25T05:11:14.275Z,1005.93
2016-08-25T05:12:25.841Z,1005.94
2016-08-25T05:13:38.121Z,1005.93
2016-08-25T05:14:48.979Z,1005.93
2016-08-25T05:16:00.555Z,1005.95
2016-08-25T05:17:12.147Z,1005.93
2016-08-25T05:18:23.714Z,1005.9
2016-08-25T05:19:36.000Z,1005.95
2016-08-25T05:20:46.866Z,1005.92
2016-08-25T05:21:58.447Z,1005.96
2016-08-25T05:23:10.020Z,1005.95
2016-08-25T05:24:21.581Z,1005.95
2016-08-25T05:25:33.167Z,1005.93
2016-08-25T05:26:45.429Z,1005.94
2016-08-25T05:27:57.035Z,1005.93
2016-08-25T05:29:09.322Z,1005.92
2016-08-25T05:30:20.899Z,1005.89
2016-08-25T05:31:32.464Z,1005.86
2016-08-25T05:32:44.039Z,1005.87
2016-08-25T05:33:54.912Z,1005.88
2016-08-25T05:35:07.203Z,1005.84
2016-08-25T05:36:18.816Z,1005.8
2016-08-25T05:37:31.087Z,1005.82
2016-08-25T05:38:43.366Z,1005.82
2016-08-25T05:39:55.659Z,1005.71
2016-08-25T05:41:07.225Z,1005.55
2016-08-25T05:42:19.534Z,1005.49
2016-08-25T05:43:31.818Z,1005.51
2016-08-25T05:44:43.399Z,1005.6
2016-08-25T05:45:55.669Z,1005.71
2016-08-25T05:47:07.231Z,1005.81
2016-08-25T05:48:19.509Z,1005.73
2016-08-25T05:49:31.078Z,1005.61
2016-08-25T05:50:42.669Z,1005.57
2016-08-25T05:51:54.948Z,1005.53
2016-08-25T05:53:07.226Z,1005.53
2016-08-25T05:54:19.495Z,1005.5
2016-08-25T05:55:31.783Z,1005.61
2016-08-25T05:56:43.362Z,1005.71
2016-08-25T05:57:55.647Z,1005.66
2016-08-25T05:59:07.928Z,1005.6
2016-08-25T06:00:19.521Z,1005.52
2016-08-25T06:01:31.797Z,1005.5
2016-08-25T06:02:44.078Z,1005.56
2016-08-25T06:03:56.355Z,1005.64
2016-08-25T06:05:07.934Z,1005.7
2016-08-25T06:06:20.213Z,1005.67
2016-08-25T06:07:31.783Z,1005.62
2016-08-25T06:08:43.357Z,1005.6
2016-08-25T06:09:55.661Z,1005.58
2016-08-25T06:11:07.941Z,1005.6
2016-08-25T06:12:20.223Z,1005.62
2016-08-25T06:13:32.504Z,1005.66
2016-08-25T06:14:44.081Z,1005.7
2016-08-25T06:15:55.644Z,1005.75
2016-08-25T06:17:07.897Z,1005.7
2016-08-25T06:18:20.181Z,1005.71
2016-08-25T06:19:31.746Z,1005.69
2016-08-25T06:20:44.029Z,1005.74
2016-08-25T06:21:56.323Z,1005.75
2016-08-25T06:23:08.607Z,1005.76
2016-08-25T06:24:21.105Z,1005.79
2016-08-25T06:25:33.382Z,1005.73
2016-08-25T06:26:45.663Z,1005.78
2016-08-25T06:27:57.958Z,1005.75
2016-08-25T06:29:09.551Z,1005.78
2016-08-25T06:30:21.833Z,1005.79
2016-08-25T06:31:34.093Z,1005.77
2016-08-25T06:32:46.362Z,1005.78
2016-08-25T06:33:58.633Z,1005.76
2016-08-25T06:35:10.913Z,1005.77
2016-08-25T06:36:22.536Z,1005.83
2016-08-25T06:37:34.113Z,1005.8
2016-08-25T06:38:44.973Z,1005.82
2016-08-25T06:39:57.247Z,1005.79
2016-08-25T06:41:09.516Z,1005.8
2016-08-25T06:42:21.790Z,1005.77
2016-08-25T06:43:34.067Z,1005.77
2016-08-25T06:44:46.362Z,1005.8
2016-08-25T06:45:58.647Z,1005.76
2016-08-25T06:47:10.229Z,1005.77
2016-08-25T06:48:21.806Z,1005.78
2016-08-25T06:49:34.083Z,1005.74
2016-08-25T06:50:46.367Z,1005.74
2016-08-25T06:51:58.666Z,1005.74
2016-08-25T06:53:10.933Z,1005.74
2016-08-25T06:54:23.208Z,1005.7
2016-08-25T06:55:35.485Z,1005.71
2016-08-25T06:56:47.751Z,1005.73
2016-08-25T06:58:00.035Z,1005.72
2016-08-25T06:59:11.632Z,1005.75
2016-08-25T07:00:23.899Z,1005.73
2016-08-25T07:09:25.060Z,1005.74
2016-08-25T07:10:36.630Z,1005.72
2016-08-25T07:11:48.904Z,1005.71
2016-08-25T07:13:01.181Z,1005.71
2016-08-25T07:14:13.457Z,1005.7
2016-08-25T07:15:25.744Z,1005.7
2016-08-25T07:16:38.008Z,1005.68
2016-08-25T07:17:50.316Z,1005.68
2016-08-25T07:19:01.894Z,1005.67
2016-08-25T07:20:14.169Z,1005.67
2016-08-25T07:21:25.745Z,1005.64
2016-08-25T07:22:37.312Z,1005.68
2016-08-25T07:23:49.599Z,1005.64
2016-08-25T07:25:01.170Z,1005.64
2016-08-25T07:26:13.441Z,1005.66
2016-08-25T07:27:24.296Z,1005.62
2016-08-25T07:28:36.562Z,1005.69
2016-08-25T07:29:48.841Z,1005.68
2016-08-25T07:31:00.419Z,1005.68
2016-08-25T07:32:12.009Z,1005.74
2016-08-25T07:33:24.284Z,1005.7
2016-08-25T07:34:35.862Z,1005.73
2016-08-25T07:35:48.138Z,1005.72
2016-08-25T07:36:59.709Z,1005.68
2016-08-25T07:38:11.990Z,1005.7
2016-08-25T07:39:23.578Z,1005.74
2016-08-25T07:40:35.851Z,1005.76
2016-08-25T07:41:48.128Z,1005.74
2016-08-25T07:43:00.413Z,1005.79
2016-08-25T07:44:12.679Z,1005.76
2016-08-25T07:45:24.254Z,1005.76
2016-08-25T07:46:36.538Z,1005.81
2016-08-25T07:47:48.805Z,1005.81
2016-08-25T07:49:00.378Z,1005.82
2016-08-25T07:50:11.944Z,1005.77
2016-08-25T07:51:23.527Z,1005.75
2016-08-25T07:52:35.826Z,1005.8
2016-08-25T07:53:48.104Z,1005.76
2016-08-25T07:55:00.387Z,1005.8
2016-08-25T07:56:12.692Z,1005.77
2016-08-25T07:57:25.025Z,1005.74
2016-08-25T07:58:36.623Z,1005.78
2016-08-25T07:59:48.213Z,1005.78
2016-08-25T08:01:00.523Z,1005.77
2016-08-25T08:02:12.852Z,1005.79
2016-08-25T08:03:25.179Z,1005.78
2016-08-25T08:04:37.468Z,1005.79
2016-08-25T08:05:49.042Z,1005.78
2016-08-25T08:07:00.617Z,1005.79
2016-08-25T08:08:12.906Z,1005.77
2016-08-25T08:09:23.779Z,1005.76
2016-08-25T08:10:35.408Z,1005.77
2016-08-25T08:11:47.691Z,1005.74
2016-08-25T08:12:59.961Z,1005.74
2016-08-25T08:14:10.845Z,1005.76
2016-08-25T08:15:23.121Z,1005.75
2016-08-25T08:16:35.416Z,1005.75
2016-08-25T08:17:47.713Z,1005.8
2016-08-25T08:18:59.304Z,1005.81
2016-08-25T08:20:11.600Z,1005.79
2016-08-25T08:21:23.877Z,1005.77
2016-08-25T08:22:36.176Z,1005.77
2016-08-25T08:23:48.714Z,1005.81
2016-08-25T08:25:00.306Z,1005.86
2016-08-25T08:26:12.611Z,1005.8
2016-08-25T08:27:24.897Z,1005.74
2016-08-25T08:28:37.195Z,1005.72
2016-08-25T08:29:49.489Z,1005.73
2016-08-25T08:31:01.077Z,1005.77
2016-08-25T08:32:13.367Z,1005.78
2016-08-25T08:33:24.949Z,1005.75
2016-08-25T08:34:37.249Z,1005.75
2016-08-25T08:35:49.554Z,1005.75
2016-08-25T08:37:01.826Z,1005.73
2016-08-25T08:38:14.102Z,1005.74
2016-08-25T08:39:26.381Z,1005.76
2016-08-25T08:40:38.644Z,1005.73
2016-08-25T08:41:50.958Z,1005.72
2016-08-25T08:43:03.249Z,1005.73
2016-08-25T08:44:15.537Z,1005.73
2016-08-25T08:45:27.820Z,1005.75
2016-08-25T08:46:40.089Z,1005.75
2016-08-25T08:47:52.366Z,1005.75
2016-08-25T08:49:03.255Z,1005.72
2016-08-25T08:50:15.535Z,1005.71
2016-08-25T08:51:27.822Z,1005.71
2016-08-25T08:52:39.384Z,1005.65
2016-08-25T08:53:51.658Z,1005.66
2016-08-25T08:55:03.950Z,1005.61
2016-08-25T08:56:15.545Z,1005.63
2016-08-25T08:57:27.831Z,1005.65
2016-08-25T08:58:39.410Z,1005.62
2016-08-25T08:59:51.680Z,1005.62
2016-08-25T09:01:03.976Z,1005.61
2016-08-25T09:02:16.272Z,1005.63
2016-08-25T09:03:27.845Z,1005.65
2016-08-25T09:04:39.424Z,1005.6
2016-08-25T09:05:51.711Z,1005.62
2016-08-25T09:07:03.284Z,1005.58
2016-08-25T09:08:15.577Z,1005.54
2016-08-25T09:09:27.860Z,1005.49
2016-08-25T09:10:39.443Z,1005.52
2016-08-25T09:11:51.729Z,1005.49
2016-08-25T09:13:04.011Z,1005.51
2016-08-25T09:14:16.304Z,1005.5
2016-08-25T09:15:27.883Z,1005.48
2016-08-25T09:16:39.488Z,1005.43
2016-08-25T09:17:50.365Z,1005.46
2016-08-25T09:19:02.679Z,1005.43
2016-08-25T09:20:14.953Z,1005.46
2016-08-25T09:21:27.261Z,1005.46
2016-08-25T09:22:39.524Z,1005.48
2016-08-25T09:23:51.104Z,1005.47
2016-08-25T09:25:03.392Z,1005.47
2016-08-25T09:26:15.671Z,1005.46
2016-08-25T09:27:27.941Z,1005.46
2016-08-25T09:28:40.241Z,1005.44
2016-08-25T09:29:52.523Z,1005.43
2016-08-25T09:31:04.130Z,1005.4
2016-08-25T09:32:15.705Z,1005.45
2016-08-25T09:33:28.010Z,1005.45
2016-08-25T09:34:40.287Z,1005.45
2016-08-25T09:35:52.577Z,1005.47
2016-08-25T09:37:04.160Z,1005.44
2016-08-25T09:38:15.742Z,1005.45
2016-08-25T09:39:26.620Z,1005.42
2016-08-25T09:40:38.889Z,1005.41
2016-08-25T09:41:50.496Z,1005.42
2016-08-25T09:43:02.808Z,1005.34
2016-08-25T09:44:14.384Z,1005.36
2016-08-25T09:45:25.978Z,1005.31
2016-08-25T09:46:38.249Z,1005.32
2016-08-25T09:47:50.542Z,1005.35
2016-08-25T09:49:02.107Z,1005.32
2016-08-25T09:50:14.384Z,1005.31
2016-08-25T09:51:26.695Z,1005.33
2016-08-25T09:52:38.989Z,1005.29
2016-08-25T09:53:51.265Z,1005.29
2016-08-25T09:55:03.547Z,1005.34
2016-08-25T09:56:15.128Z,1005.32
2016-08-25T09:57:27.518Z,1005.34
2016-08-25T09:58:39.099Z,1005.33
2016-08-25T09:59:50.678Z,1005.31
2016-08-25T10:01:02.964Z,1005.32
2016-08-25T10:02:15.249Z,1005.27
2016-08-25T10:03:27.539Z,1005.26
2016-08-25T10:04:39.823Z,1005.27
2016-08-25T10:05:52.093Z,1005.25
2016-08-25T10:07:03.687Z,1005.2
2016-08-25T10:08:15.284Z,1005.24
2016-08-25T10:09:26.867Z,1005.27
2016-08-25T10:10:39.150Z,1005.19
2016-08-25T10:11:50.022Z,1005.19
2016-08-25T10:13:01.601Z,1005.18
2016-08-25T10:14:13.889Z,1005.17
2016-08-25T10:15:26.182Z,1005.17
2016-08-25T10:16:38.473Z,1005.1
2016-08-25T10:17:50.793Z,1005.14
2016-08-25T10:19:02.379Z,1005.1
2016-08-25T10:20:14.946Z,1005.08
2016-08-25T10:21:26.526Z,1005.06
2016-08-25T10:22:38.120Z,1005.09
2016-08-25T10:23:50.409Z,1005.05
2016-08-25T10:25:02.700Z,1004.99
2016-08-25T10:26:15.006Z,1005.06
2016-08-25T10:27:27.288Z,1005.01
2016-08-25T10:28:39.605Z,1004.98
2016-08-25T10:29:51.896Z,1004.97
2016-08-25T10:31:03.486Z,1004.94
2016-08-25T10:32:15.777Z,1004.93
2016-08-25T10:33:27.362Z,1004.87
2016-08-25T10:34:39.639Z,1004.87
2016-08-25T10:35:51.924Z,1004.85
2016-08-25T10:37:04.223Z,1004.87
2016-08-25T10:38:15.814Z,1004.86
2016-08-25T10:39:28.106Z,1004.88
2016-08-25T10:40:40.373Z,1004.9
2016-08-25T10:41:51.958Z,1004.9
2016-08-25T10:43:04.249Z,1004.89
2016-08-25T10:44:16.525Z,1004.87
2016-08-25T10:45:28.820Z,1004.86
2016-08-25T10:46:39.691Z,1004.84
2016-08-25T10:47:51.986Z,1004.84
2016-08-25T10:49:04.272Z,1004.81
2016-08-25T10:50:16.546Z,1004.8
2016-08-25T10:51:28.835Z,1004.76
2016-08-25T10:52:41.131Z,1004.81
2016-08-25T10:53:52.712Z,1004.79
2016-08-25T10:55:04.292Z,1004.77
2016-08-25T10:56:16.571Z,1004.74
2016-08-25T10:57:28.154Z,1004.67
2016-08-25T10:58:40.450Z,1004.66
2016-08-25T10:59:52.735Z,1004.66
2016-08-25T11:01:05.023Z,1004.64
2016-08-25T11:02:17.305Z,1004.61
2016-08-25T11:03:29.587Z,1004.56
2016-08-25T11:04:41.168Z,1004.59
2016-08-25T11:05:53.470Z,1004.58
2016-08-25T11:07:05.755Z,1004.6
2016-08-25T11:08:18.033Z,1004.59
2016-08-25T11:09:30.363Z,1004.6
2016-08-25T11:10:42.664Z,1004.57
2016-08-25T11:11:54.941Z,1004.57
2016-08-25T11:13:07.231Z,1004.61
2016-08-25T11:14:19.525Z,1004.55
2016-08-25T11:15:31.818Z,1004.56
2016-08-25T11:16:43.426Z,1004.53
2016-08-25T11:17:55.694Z,1004.54
2016-08-25T11:19:08.005Z,1004.51
2016-08-25T11:20:19.602Z,1004.53
2016-08-25T11:21:31.896Z,1004.5
2016-08-25T11:22:44.175Z,1004.5
2016-08-25T11:23:55.771Z,1004.44
2016-08-25T11:25:08.050Z,1004.52
2016-08-25T11:26:20.330Z,1004.47
2016-08-25T11:27:32.624Z,1004.46
2016-08-25T11:28:44.890Z,1004.42
2016-08-25T11:29:56.467Z,1004.46
2016-08-25T11:31:08.763Z,1004.46
2016-08-25T11:32:20.352Z,1004.46
2016-08-25T11:33:31.915Z,1004.44
2016-08-25T11:34:44.203Z,1004.46
2016-08-25T11:35:55.795Z,1004.46
2016-08-25T11:37:08.073Z,1004.4
2016-08-25T11:38:20.360Z,1004.47
2016-08-25T11:39:32.654Z,1004.47
2016-08-25T11:40:43.554Z,1004.46
2016-08-25T11:41:55.843Z,1004.46
2016-08-25T11:43:07.451Z,1004.49
2016-08-25T11:44:19.026Z,1004.49
2016-08-25T11:45:30.609Z,1004.5
2016-08-25T11:46:42.903Z,1004.46
2016-08-25T11:47:54.501Z,1004.48
2016-08-25T11:49:06.059Z,1004.47
2016-08-25T11:50:18.353Z,1004.44
2016-08-25T11:51:29.239Z,1004.46
2016-08-25T11:52:41.533Z,1004.43
2016-08-25T11:53:53.812Z,1004.44
2016-08-25T11:55:06.100Z,1004.39
2016-08-25T11:56:16.991Z,1004.39
2016-08-25T11:57:29.268Z,1004.42
2016-08-25T11:58:41.562Z,1004.37
2016-08-25T11:59:53.837Z,1004.44
2016-08-25T12:01:06.130Z,1004.39
2016-08-25T12:02:18.402Z,1004.38
2016-08-25T12:03:29.992Z,1004.41
2016-08-25T12:04:41.596Z,1004.41
2016-08-25T12:05:53.189Z,1004.44
2016-08-25T12:07:05.497Z,1004.48
2016-08-25T12:08:17.804Z,1004.38
2016-08-25T12:09:29.385Z,1004.42
2016-08-25T12:10:40.322Z,1004.45
2016-08-25T12:11:52.599Z,1004.49
2016-08-25T12:13:04.896Z,1004.47
2016-08-25T12:14:16.471Z,1004.45
2016-08-25T12:15:28.778Z,1004.42
2016-08-25T12:16:41.057Z,1004.48
2016-08-25T12:17:53.347Z,1004.47
2016-08-25T12:19:05.643Z,1004.45
2016-08-25T12:20:17.233Z,1004.44
2016-08-25T12:21:29.514Z,1004.42
2016-08-25T12:22:41.785Z,1004.37
2016-08-25T12:23:53.366Z,1004.33
2016-08-25T12:25:05.645Z,1004.36
2016-08-25T12:26:17.225Z,1004.38
2016-08-25T12:27:29.521Z,1004.33
2016-08-25T12:28:41.797Z,1004.37
2016-08-25T12:29:53.368Z,1004.38
2016-08-25T12:31:05.662Z,1004.36
2016-08-25T12:32:17.984Z,1004.35
2016-08-25T12:33:29.577Z,1004.33
2016-08-25T12:34:41.845Z,1004.28
2016-08-25T12:35:54.131Z,1004.31
2016-08-25T12:37:06.420Z,1004.28
2016-08-25T12:38:18.714Z,1004.24
2016-08-25T12:39:30.984Z,1004.23
2016-08-25T12:40:43.291Z,1004.26
2016-08-25T12:41:54.891Z,1004.21
2016-08-25T12:43:06.465Z,1004.19
2016-08-25T12:44:18.745Z,1004.16
2016-08-25T12:45:31.163Z,1004.18
2016-08-25T12:46:43.479Z,1004.16
2016-08-25T12:47:55.769Z,1004.2
2016-08-25T12:49:07.355Z,1004.18
2016-08-25T12:50:19.656Z,1004.17
2016-08-25T12:51:31.947Z,1004.15
2016-08-25T12:52:44.255Z,1004.14
2016-08-25T12:53:55.843Z,1004.08
2016-08-25T12:55:07.452Z,1004.13
2016-08-25T12:56:19.748Z,1004.16
2016-08-25T12:57:32.035Z,1004.09
2016-08-25T12:58:44.328Z,1004.11
2016-08-25T12:59:55.907Z,1004.09
2016-08-25T13:01:07.480Z,1004.12
2016-08-25T13:02:19.775Z,1004.12
2016-08-25T13:03:32.069Z,1004.08
2016-08-25T13:12:24.662Z,1003.97
2016-08-25T13:13:37.411Z,1003.94
2016-08-25T13:14:49.462Z,1003.99
2016-08-25T13:16:01.980Z,1003.96
2016-08-25T13:17:13.548Z,1003.97
2016-08-25T13:18:26.237Z,1003.99
2016-08-25T13:19:38.751Z,1004.04
2016-08-25T13:20:51.079Z,1004.01
2016-08-25T13:22:03.578Z,1003.98
2016-08-25T13:23:15.871Z,1004
2016-08-25T13:24:28.414Z,1003.95
2016-08-25T13:25:40.705Z,1003.97
2016-08-25T13:26:53.262Z,1003.99
2016-08-25T13:28:05.609Z,1003.94
2016-08-25T13:29:17.932Z,1003.95
2016-08-25T13:30:29.500Z,1003.98
2016-08-25T13:31:41.786Z,1003.98
2016-08-25T13:32:54.078Z,1003.95
2016-08-25T13:34:06.366Z,1003.95
2016-08-25T13:35:18.853Z,1003.94
2016-08-25T13:36:31.144Z,1003.95
2016-08-25T13:37:43.438Z,1003.94
2016-08-25T13:38:55.718Z,1003.97
2016-08-25T13:40:07.310Z,1003.93
2016-08-25T13:41:19.601Z,1003.89
2016-08-25T13:42:31.913Z,1003.92
2016-08-25T13:43:44.207Z,1003.92
2016-08-25T13:44:56.497Z,1003.9
2016-08-25T13:46:08.784Z,1003.91
2016-08-25T13:47:21.518Z,1003.9
2016-08-25T13:48:33.784Z,1003.92
2016-08-25T13:49:46.062Z,1003.86
2016-08-25T13:50:58.336Z,1003.88
2016-08-25T13:52:10.627Z,1003.85
2016-08-25T13:53:22.939Z,1003.88
2016-08-25T13:54:35.233Z,1003.87
2016-08-25T13:55:47.517Z,1003.9
2016-08-25T13:56:59.099Z,1003.89
2016-08-25T13:58:10.690Z,1003.85
2016-08-25T13:59:22.997Z,1003.87
2016-08-25T14:00:34.575Z,1003.84
2016-08-25T14:01:45.440Z,1003.8
2016-08-25T14:02:57.737Z,1003.82
2016-08-25T14:04:10.032Z,1003.83
2016-08-25T14:05:21.625Z,1003.87
2016-08-25T14:06:33.925Z,1003.87
2016-08-25T14:07:46.215Z,1003.88
2016-08-25T14:08:58.487Z,1003.86
2016-08-25T14:10:10.754Z,1003.87
2016-08-25T14:11:23.071Z,1003.88
2016-08-25T14:12:35.367Z,1003.9
2016-08-25T14:13:46.948Z,1003.93
2016-08-25T14:14:59.218Z,1003.88
2016-08-25T14:16:10.810Z,1003.9
2016-08-25T14:17:23.105Z,1003.89
2016-08-25T14:18:35.376Z,1003.86
2016-08-25T14:19:46.942Z,1003.85
2016-08-25T14:20:58.505Z,1003.87
2016-08-25T14:22:10.783Z,1003.86
2016-08-25T14:23:23.056Z,1003.85
2016-08-25T14:24:34.651Z,1003.84
2016-08-25T14:25:46.927Z,1003.83
2016-08-25T14:26:59.219Z,1003.86
2016-08-25T14:28:11.497Z,1003.82
2016-08-25T14:29:23.066Z,1003.8
2016-08-25T14:30:34.634Z,1003.79
2016-08-25T14:31:46.191Z,1003.73
2016-08-25T14:32:58.469Z,1003.75
2016-08-25T14:34:10.743Z,1003.72
2016-08-25T14:35:23.012Z,1003.72
2016-08-25T14:36:35.293Z,1003.67
2016-08-25T14:37:47.594Z,1003.71
2016-08-25T14:38:59.896Z,1003.69
2016-08-25T14:40:11.493Z,1003.69
2016-08-25T14:41:22.364Z,1003.7
2016-08-25T14:42:34.657Z,1003.66
2016-08-25T14:43:46.933Z,1003.66
2016-08-25T14:44:59.225Z,1003.66
2016-08-25T14:46:11.526Z,1003.65
2016-08-25T14:47:23.814Z,1003.63
2016-08-25T14:48:36.112Z,1003.62
2016-08-25T14:49:48.385Z,1003.59
2016-08-25T14:51:00.670Z,1003.6
2016-08-25T14:52:12.233Z,1003.56
2016-08-25T14:53:24.541Z,1003.55
2016-08-25T14:54:36.105Z,1003.55
2016-08-25T14:55:48.385Z,1003.51
2016-08-25T14:57:00.140Z,1003.56
2016-08-25T14:58:12.697Z,1003.54
2016-08-25T14:59:25.006Z,1003.51
2016-08-25T15:00:37.325Z,1003.51
2016-08-25T15:01:48.976Z,1003.49
2016-08-25T15:03:01.294Z,1003.48
2016-08-25T15:04:13.629Z,1003.49
2016-08-25T15:05:25.972Z,1003.45
2016-08-25T15:06:38.308Z,1003.43
2016-08-25T15:07:50.630Z,1003.46
2016-08-25T15:09:02.233Z,1003.41
2016-08-25T15:10:13.871Z,1003.41
2016-08-25T15:11:26.238Z,1003.33
2016-08-25T15:12:37.845Z,1003.39
2016-08-25T15:13:49.462Z,1003.33
2016-08-25T15:15:01.790Z,1003.36
2016-08-25T15:16:14.127Z,1003.35
2016-08-25T15:17:26.436Z,1003.33
2016-08-25T15:18:38.761Z,1003.32
2016-08-25T15:19:51.071Z,1003.32